Terminal Aerodrome Forecast
Issued by NWS

Home | Current Version | Previous Version | Text Only | Print | Product List | Glossary On
Versions: 1 2 3 4 5 6 7 8 9 10 11 12 13 14 15 16 17
000
FTUS46 KMTR 291100
TAFSNS
TAF
KSNS 291138Z 2912/3012 00000KT P6SM OVC004
     FM291700 29007KT P6SM SCT200
     FM292000 28015KT P6SM SCT200
     FM300300 28009KT P6SM BKN008
     FM300600 28006KT P6SM OVC005=

USA.gov is the U.S. government's official web portal to all federal, state and local government web resources and services.